Time;durP1;ratioP1;P1;durP2;ratioP2;P2;SDS_P1;SDS_P2;PMS_P1;PMS_P2;Temp;Humidity;BMP_temperature;BMP_pressure;BME280_temperature;BME280_humidity;BME280_pressure;Samples;Min_cycle;Max_cycle;Signal;HPM_P1;HPM_P2
2021/09/25 00:00:37;;;;;;;8.33;5.20;;;17.50;97.30;;;;;;5014913;28;20547;-81
2021/09/25 00:03:04;;;;;;;10.07;5.43;;;17.50;97.30;;;;;;5013030;28;20470;-76
2021/09/25 00:05:34;;;;;;;12.63;5.77;;;17.50;97.30;;;;;;5011130;28;20483;-78
2021/09/25 00:08:00;;;;;;;9.90;6.77;;;17.50;97.30;;;;;;5011898;28;20432;-79
2021/09/25 00:10:27;;;;;;;10.47;6.53;;;17.50;97.30;;;;;;5028480;28;20420;-78
2021/09/25 00:12:53;;;;;;;9.40;6.63;;;17.50;97.30;;;;;;5010716;28;20686;-76
2021/09/25 00:15:21;;;;;;;7.40;5.90;;;17.50;97.30;;;;;;5010422;28;20502;-77
2021/09/25 00:17:46;;;;;;;9.27;5.93;;;17.50;97.30;;;;;;5010779;28;20416;-77
2021/09/25 00:20:15;;;;;;;9.10;5.40;;;17.50;97.30;;;;;;5010392;28;20500;-77
2021/09/25 00:22:41;;;;;;;11.30;5.97;;;17.50;97.30;;;;;;5010284;28;20485;-77
2021/09/25 00:25:07;;;;;;;7.37;5.10;;;17.50;97.30;;;;;;5011322;28;20472;-77
2021/09/25 00:27:32;;;;;;;8.90;5.30;;;17.50;97.30;;;;;;5010082;28;20416;-78
2021/09/25 00:29:58;;;;;;;8.77;5.40;;;17.50;97.30;;;;;;5010127;28;20427;-77
2021/09/25 00:32:23;;;;;;;7.33;5.37;;;17.50;97.30;;;;;;5009990;28;20612;-77
2021/09/25 00:34:49;;;;;;;5.23;4.53;;;17.50;97.30;;;;;;5012870;28;20646;-78
2021/09/25 00:37:15;;;;;;;10.00;4.03;;;17.50;97.30;;;;;;5014842;28;20187;-76
2021/09/25 00:39:41;;;;;;;5.07;4.53;;;17.50;97.30;;;;;;5015747;28;20169;-79
2021/09/25 00:42:06;;;;;;;6.03;4.00;;;17.50;97.30;;;;;;5016679;28;20446;-78
2021/09/25 00:44:33;;;;;;;6.47;4.23;;;17.50;97.30;;;;;;5016401;28;20247;-79
2021/09/25 00:46:59;;;;;;;6.73;3.60;;;17.50;97.30;;;;;;5031755;28;20191;-78
2021/09/25 00:49:25;;;;;;;6.13;3.67;;;17.50;97.30;;;;;;5014710;28;20514;-78
2021/09/25 00:51:52;;;;;;;6.40;4.07;;;17.50;97.30;;;;;;5016403;28;20568;-78
2021/09/25 00:54:18;;;;;;;6.23;3.70;;;17.50;97.30;;;;;;5014983;28;20436;-77
2021/09/25 00:56:47;;;;;;;8.30;4.03;;;17.50;97.30;;;;;;5014307;28;20420;-77
2021/09/25 00:59:15;;;;;;;4.93;3.60;;;17.50;97.30;;;;;;5013915;28;20416;-77
2021/09/25 01:01:41;;;;;;;4.97;3.57;;;17.50;97.30;;;;;;5013227;28;20875;-77
2021/09/25 01:04:07;;;;;;;6.87;3.53;;;17.40;97.30;;;;;;5013264;28;20597;-76
2021/09/25 01:06:33;;;;;;;6.33;3.73;;;17.50;97.30;;;;;;5015611;28;20412;-78
2021/09/25 01:08:59;;;;;;;7.20;4.37;;;17.40;97.30;;;;;;5020037;28;20427;-79
2021/09/25 01:11:26;;;;;;;5.90;3.90;;;17.40;97.30;;;;;;5014896;28;20180;-77
2021/09/25 01:13:54;;;;;;;7.70;3.17;;;17.40;97.30;;;;;;5013207;28;20944;-77
2021/09/25 01:16:24;;;;;;;9.10;4.20;;;17.40;97.30;;;;;;5013176;28;20422;-77
2021/09/25 01:18:50;;;;;;;6.10;3.83;;;17.40;97.30;;;;;;5013452;28;20507;-78
2021/09/25 01:21:17;;;;;;;7.17;4.47;;;17.40;97.30;;;;;;5030674;28;20416;-79
2021/09/25 01:23:43;;;;;;;7.70;4.27;;;17.40;97.30;;;;;;5014883;28;20467;-79
2021/09/25 01:26:08;;;;;;;4.80;3.67;;;17.40;97.30;;;;;;5015117;28;20428;-78
2021/09/25 01:28:37;;;;;;;7.00;3.13;;;17.40;97.30;;;;;;5014748;28;20208;-77
2021/09/25 01:31:05;;;;;;;4.33;3.50;;;17.40;97.30;;;;;;5014231;28;20418;-79
2021/09/25 01:33:34;;;;;;;5.67;3.70;;;17.40;97.30;;;;;;5014361;28;20496;-79
2021/09/25 01:35:59;;;;;;;4.60;3.10;;;17.40;97.30;;;;;;5011393;28;20500;-79
2021/09/25 01:38:25;;;;;;;3.83;2.80;;;17.40;97.30;;;;;;4996256;28;20568;-78
2021/09/25 01:40:51;;;;;;;6.07;3.30;;;17.40;97.30;;;;;;5013546;28;20412;-78
2021/09/25 01:43:17;;;;;;;6.63;4.07;;;17.30;97.30;;;;;;4998606;28;20202;-80
2021/09/25 01:45:45;;;;;;;6.17;3.23;;;17.30;97.30;;;;;;4999055;28;21196;-80
2021/09/25 01:48:11;;;;;;;5.53;3.30;;;17.30;97.30;;;;;;4998800;28;20488;-80
2021/09/25 01:50:37;;;;;;;5.10;3.30;;;17.30;97.30;;;;;;4999490;28;20417;-81
2021/09/25 01:53:03;;;;;;;4.50;3.20;;;17.30;97.30;;;;;;5003753;28;20463;-79
2021/09/25 01:55:29;;;;;;;4.10;3.13;;;17.30;97.30;;;;;;5014981;28;20450;-79
2021/09/25 01:57:54;;;;;;;4.60;3.20;;;17.30;97.30;;;;;;5014985;28;20424;-78
2021/09/25 02:00:20;;;;;;;5.47;3.70;;;17.30;97.30;;;;;;5029504;28;20636;-78
2021/09/25 02:02:46;;;;;;;4.33;3.30;;;17.20;97.30;;;;;;5013675;28;20733;-79
2021/09/25 02:05:15;;;;;;;5.40;3.73;;;17.20;97.30;;;;;;5014237;28;20424;-79
2021/09/25 02:07:41;;;;;;;5.13;3.60;;;17.20;97.30;;;;;;5014026;28;20191;-79
2021/09/25 02:10:07;;;;;;;8.57;3.60;;;17.20;97.30;;;;;;5014747;28;20420;-79
2021/09/25 02:12:33;;;;;;;9.07;3.60;;;17.20;97.30;;;;;;5015233;28;20505;-79
2021/09/25 02:14:58;;;;;;;4.80;3.53;;;17.20;97.30;;;;;;5014723;28;20436;-78
2021/09/25 02:17:24;;;;;;;4.60;3.30;;;17.20;97.30;;;;;;5014506;28;20231;-79
2021/09/25 02:19:50;;;;;;;5.63;3.60;;;17.20;97.30;;;;;;5017249;28;20185;-78
2021/09/25 02:22:15;;;;;;;4.20;3.20;;;17.20;97.30;;;;;;5016084;28;20181;-78
2021/09/25 02:24:41;;;;;;;5.33;3.60;;;17.10;97.30;;;;;;5014469;28;20201;-79
2021/09/25 02:27:07;;;;;;;5.27;3.20;;;17.10;97.30;;;;;;5015630;28;20451;-78
2021/09/25 02:29:32;;;;;;;3.43;3.10;;;17.10;97.30;;;;;;5015135;28;20190;-78
2021/09/25 02:31:58;;;;;;;4.03;3.23;;;17.10;97.30;;;;;;5014232;28;20558;-79
2021/09/25 02:34:24;;;;;;;4.30;3.10;;;17.10;97.30;;;;;;5014642;28;20201;-79
2021/09/25 02:36:49;;;;;;;4.50;3.50;;;17.00;97.30;;;;;;5013836;28;20177;-80
2021/09/25 02:39:15;;;;;;;5.33;3.37;;;17.00;97.30;;;;;;5030652;28;20177;-78
2021/09/25 02:41:41;;;;;;;3.47;2.60;;;17.00;97.30;;;;;;5013789;28;20228;-78
2021/09/25 02:44:06;;;;;;;4.27;3.20;;;17.00;97.30;;;;;;5014784;28;20208;-79
2021/09/25 02:46:32;;;;;;;6.67;3.50;;;17.00;97.30;;;;;;5013064;28;20182;-78
2021/09/25 02:48:58;;;;;;;5.30;3.00;;;16.90;97.30;;;;;;5013548;28;20564;-78
2021/09/25 02:51:23;;;;;;;8.53;3.10;;;16.90;97.30;;;;;;5013558;28;20181;-79
2021/09/25 02:53:49;;;;;;;4.30;3.30;;;16.90;97.30;;;;;;5014031;28;20197;-79
2021/09/25 02:56:14;;;;;;;8.57;3.27;;;16.80;97.30;;;;;;5014424;28;20204;-77
2021/09/25 02:58:40;;;;;;;4.30;3.30;;;16.80;97.30;;;;;;5013201;28;20247;-79
2021/09/25 03:01:06;;;;;;;4.80;3.70;;;16.80;97.30;;;;;;5013255;28;20225;-79
2021/09/25 03:03:31;;;;;;;7.40;3.40;;;16.70;97.30;;;;;;5014433;28;20334;-79
2021/09/25 03:05:57;;;;;;;5.30;3.60;;;16.70;97.30;;;;;;5015868;28;20185;-80
2021/09/25 03:08:23;;;;;;;5.30;3.70;;;16.70;97.30;;;;;;5017755;28;20213;-79
2021/09/25 03:10:48;;;;;;;4.70;3.47;;;16.70;97.30;;;;;;5013828;28;20185;-78
2021/09/25 03:13:14;;;;;;;4.90;3.40;;;16.60;97.30;;;;;;5012828;28;20213;-79
2021/09/25 03:15:40;;;;;;;4.10;3.30;;;16.60;97.30;;;;;;5012969;28;20185;-79
2021/09/25 03:18:05;;;;;;;4.27;2.73;;;16.60;97.30;;;;;;5013342;28;20183;-79
2021/09/25 03:20:31;;;;;;;3.87;2.90;;;16.60;97.30;;;;;;5014534;28;20265;-79
2021/09/25 03:22:57;;;;;;;4.10;2.97;;;16.60;97.30;;;;;;5015100;28;20196;-79
2021/09/25 03:25:22;;;;;;;5.90;3.30;;;16.50;97.30;;;;;;5016416;28;20185;-79
2021/09/25 03:27:53;;;;;;;5.23;3.40;;;16.50;97.30;;;;;;5033943;28;20749;-77
2021/09/25 03:30:19;;;;;;;5.83;3.40;;;16.50;97.30;;;;;;5031718;28;20942;-78
2021/09/25 03:32:45;;;;;;;6.50;3.03;;;16.50;97.30;;;;;;5031855;28;20470;-78
2021/09/25 03:35:11;;;;;;;4.43;3.23;;;16.40;97.30;;;;;;5032807;28;20248;-78
2021/09/25 03:37:36;;;;;;;4.90;3.60;;;16.40;97.30;;;;;;5033128;28;20517;-80
2021/09/25 03:40:03;;;;;;;7.27;3.70;;;16.30;97.30;;;;;;5049166;28;20176;-78
2021/09/25 03:42:28;;;;;;;5.87;3.30;;;16.30;97.30;;;;;;5032359;28;20279;-78
2021/09/25 03:44:54;;;;;;;4.50;3.00;;;16.30;97.30;;;;;;5031857;28;20466;-77
2021/09/25 03:47:19;;;;;;;7.33;3.67;;;16.30;97.30;;;;;;5014629;28;20188;-78
2021/09/25 03:49:45;;;;;;;3.40;2.73;;;16.30;97.30;;;;;;5011918;28;20192;-78
2021/09/25 03:52:11;;;;;;;6.70;3.83;;;16.30;97.30;;;;;;5011122;28;20207;-78
2021/09/25 03:54:36;;;;;;;5.07;3.70;;;16.20;97.30;;;;;;5011005;28;20229;-77
2021/09/25 03:57:02;;;;;;;7.50;3.47;;;16.20;97.30;;;;;;5010458;28;20205;-77
2021/09/25 03:59:28;;;;;;;6.30;3.83;;;16.20;97.30;;;;;;5010297;28;21069;-77
2021/09/25 04:01:53;;;;;;;4.77;3.50;;;16.10;97.30;;;;;;5010163;28;20472;-78
2021/09/25 04:04:20;;;;;;;5.17;3.47;;;16.10;97.30;;;;;;5010721;28;20296;-78
2021/09/25 04:06:46;;;;;;;5.10;3.20;;;16.00;97.30;;;;;;5011600;28;20227;-77
2021/09/25 04:09:11;;;;;;;9.73;3.53;;;16.00;97.30;;;;;;5010238;28;20432;-76
2021/09/25 04:11:37;;;;;;;6.00;3.60;;;16.00;97.30;;;;;;5010334;28;20191;-77
2021/09/25 04:14:03;;;;;;;6.30;4.20;;;16.00;97.30;;;;;;5010632;28;20228;-76
2021/09/25 04:16:29;;;;;;;6.23;4.00;;;16.00;97.30;;;;;;5010851;28;20181;-78
2021/09/25 04:18:54;;;;;;;3.93;3.23;;;15.90;97.30;;;;;;5010566;28;20829;-78
2021/09/25 04:21:20;;;;;;;7.07;3.80;;;15.90;97.30;;;;;;5010285;28;20181;-77
2021/09/25 04:23:46;;;;;;;5.60;4.07;;;15.90;97.30;;;;;;5010289;28;20189;-78
2021/09/25 04:26:12;;;;;;;5.67;3.27;;;15.80;97.30;;;;;;5011413;28;20921;-78
2021/09/25 04:28:38;;;;;;;9.17;3.90;;;15.80;97.30;;;;;;5011887;28;20173;-78
2021/09/25 04:31:04;;;;;;;7.17;3.43;;;15.80;97.30;;;;;;5011567;28;20932;-77
2021/09/25 04:33:29;;;;;;;5.30;3.90;;;15.80;97.30;;;;;;5010661;28;20212;-78
2021/09/25 04:35:55;;;;;;;4.80;3.93;;;15.80;97.30;;;;;;5010481;28;20420;-78
2021/09/25 04:38:20;;;;;;;6.27;4.13;;;15.80;97.30;;;;;;5011788;28;20181;-78
2021/09/25 04:40:46;;;;;;;6.53;3.73;;;15.80;97.30;;;;;;5011390;28;20180;-78
2021/09/25 04:43:12;;;;;;;5.10;3.50;;;15.80;97.30;;;;;;5010646;28;20284;-76
2021/09/25 04:45:38;;;;;;;6.17;3.40;;;15.70;97.30;;;;;;5009635;28;20704;-78
2021/09/25 04:48:03;;;;;;;3.87;3.17;;;15.70;97.30;;;;;;5009849;28;20183;-78
2021/09/25 04:50:29;;;;;;;6.00;3.83;;;15.70;97.30;;;;;;5010644;28;20184;-78
2021/09/25 04:53:05;;;;;;;11.67;3.90;;;15.70;97.30;;;;;;5024864;28;21314;-78
2021/09/25 04:55:31;;;;;;;5.60;4.00;;;15.70;97.30;;;;;;4994832;28;20174;-78
2021/09/25 04:57:57;;;;;;;5.43;3.70;;;15.70;97.30;;;;;;5012334;28;20940;-78
2021/09/25 05:00:23;;;;;;;5.70;4.10;;;15.70;97.30;;;;;;5012081;28;20547;-77
2021/09/25 05:02:48;;;;;;;5.80;3.53;;;15.70;97.30;;;;;;5011056;28;20467;-77
2021/09/25 05:05:14;;;;;;;7.30;4.20;;;15.60;97.30;;;;;;5011429;28;20240;-78
2021/09/25 05:07:39;;;;;;;5.53;3.57;;;15.70;97.30;;;;;;5009748;28;20181;-77
2021/09/25 05:10:05;;;;;;;6.13;4.40;;;15.70;97.30;;;;;;5006201;28;20261;-78
2021/09/25 05:12:31;;;;;;;7.00;3.50;;;15.70;97.30;;;;;;5006859;28;20193;-78
2021/09/25 05:14:56;;;;;;;7.77;3.87;;;15.70;97.30;;;;;;5007869;28;20470;-78
2021/09/25 05:17:22;;;;;;;6.77;4.37;;;15.70;97.30;;;;;;4998873;28;20580;-77
2021/09/25 05:19:48;;;;;;;6.77;4.50;;;15.70;97.30;;;;;;5000793;28;20177;-78
2021/09/25 05:22:14;;;;;;;7.17;4.13;;;15.70;97.30;;;;;;5001682;28;20232;-79
2021/09/25 05:24:39;;;;;;;7.60;4.20;;;15.70;97.30;;;;;;5010151;28;20228;-77
2021/09/25 05:27:05;;;;;;;5.53;4.10;;;15.70;97.30;;;;;;5007404;28;20409;-78
2021/09/25 05:29:31;;;;;;;6.10;3.97;;;15.70;97.30;;;;;;5002076;28;20404;-78
2021/09/25 05:32:01;;;;;;;7.03;4.27;;;15.70;97.30;;;;;;5006683;28;20236;-77
2021/09/25 05:34:27;;;;;;;11.00;4.57;;;15.70;97.30;;;;;;5013380;28;20201;-78
2021/09/25 05:36:54;;;;;;;7.53;5.00;;;15.80;97.30;;;;;;5012513;28;20462;-78
2021/09/25 05:39:20;;;;;;;6.30;3.90;;;15.80;97.30;;;;;;5012274;28;20416;-76
2021/09/25 05:41:46;;;;;;;10.00;4.53;;;15.80;97.30;;;;;;4995461;28;21106;-76
2021/09/25 05:44:11;;;;;;;6.07;4.37;;;15.80;97.30;;;;;;5010881;28;20205;-77
2021/09/25 05:46:38;;;;;;;6.37;3.90;;;15.80;97.30;;;;;;5013050;28;20748;-78
2021/09/25 05:49:04;;;;;;;7.03;4.17;;;15.80;97.30;;;;;;5012659;28;20189;-78
2021/09/25 05:51:29;;;;;;;13.57;4.43;;;15.80;97.30;;;;;;5013734;28;20427;-78
2021/09/25 05:53:55;;;;;;;7.17;5.30;;;15.80;97.30;;;;;;5013843;28;20228;-80
2021/09/25 05:56:21;;;;;;;5.03;3.97;;;15.80;97.30;;;;;;5011971;28;20177;-79
2021/09/25 05:58:46;;;;;;;7.13;4.10;;;15.90;97.30;;;;;;5006769;28;20185;-78
2021/09/25 06:01:12;;;;;;;5.40;4.13;;;15.90;97.30;;;;;;5000779;28;20205;-77
2021/09/25 06:03:37;;;;;;;8.63;4.63;;;15.90;97.30;;;;;;5014014;28;20285;-78
2021/09/25 06:06:03;;;;;;;5.97;3.77;;;15.90;97.30;;;;;;5007520;28;20570;-77
2021/09/25 06:08:29;;;;;;;8.37;3.90;;;16.00;97.30;;;;;;4994093;28;20238;-78
2021/09/25 06:10:55;;;;;;;6.07;4.20;;;16.00;97.30;;;;;;5029467;28;20173;-78
2021/09/25 06:13:20;;;;;;;6.00;3.60;;;16.00;97.30;;;;;;5030996;28;20711;-77
2021/09/25 06:15:46;;;;;;;8.83;3.87;;;16.00;97.30;;;;;;5030952;28;20424;-77
2021/09/25 06:18:15;;;;;;;12.53;4.90;;;16.00;97.30;;;;;;5031096;28;20268;-78
2021/09/25 06:20:40;;;;;;;7.37;4.33;;;16.10;97.30;;;;;;5023152;28;20200;-77
2021/09/25 06:23:06;;;;;;;5.80;4.07;;;16.10;97.30;;;;;;5013103;28;20459;-76
2021/09/25 06:25:32;;;;;;;4.40;3.77;;;16.10;97.30;;;;;;5014704;28;20173;-78
2021/09/25 06:27:59;;;;;;;7.90;4.50;;;16.10;97.30;;;;;;5013580;28;20255;-78
2021/09/25 06:30:25;;;;;;;9.67;4.63;;;16.10;97.30;;;;;;5007850;28;20423;-76
2021/09/25 06:32:51;;;;;;;6.77;4.60;;;16.10;97.30;;;;;;4995218;28;21054;-78
2021/09/25 06:35:16;;;;;;;5.30;3.83;;;16.10;97.30;;;;;;5025696;28;20195;-78
2021/09/25 06:37:42;;;;;;;7.07;4.30;;;16.10;97.30;;;;;;5011523;28;20184;-77
2021/09/25 06:40:10;;;;;;;7.97;4.10;;;16.20;97.30;;;;;;5012997;28;20181;-76
2021/09/25 06:42:36;;;;;;;5.00;3.80;;;16.20;97.30;;;;;;5012007;28;20189;-78
2021/09/25 06:45:03;;;;;;;8.60;4.20;;;16.20;97.30;;;;;;5012371;28;20845;-77
2021/09/25 06:47:29;;;;;;;8.10;4.20;;;16.20;97.30;;;;;;5000017;28;20953;-77
2021/09/25 06:49:55;;;;;;;6.60;4.20;;;16.30;97.30;;;;;;4992427;28;20460;-77
2021/09/25 06:52:20;;;;;;;9.47;4.30;;;16.30;97.30;;;;;;4991686;28;21013;-79
2021/09/25 06:54:46;;;;;;;6.70;4.27;;;16.30;97.30;;;;;;4991745;28;20216;-78
2021/09/25 06:57:13;;;;;;;6.77;4.20;;;16.40;97.30;;;;;;4979361;28;20209;-78
2021/09/25 06:59:38;;;;;;;7.60;4.30;;;16.40;97.30;;;;;;5013188;28;20490;-78
2021/09/25 07:02:04;;;;;;;11.83;4.53;;;16.40;97.30;;;;;;5012577;28;20217;-77
2021/09/25 07:04:30;;;;;;;5.83;3.87;;;16.50;97.30;;;;;;5024357;28;20201;-76
2021/09/25 07:06:56;;;;;;;9.33;4.83;;;16.50;97.30;;;;;;5012164;28;20942;-76
2021/09/25 07:09:21;;;;;;;7.97;4.70;;;16.50;97.30;;;;;;5011600;28;20420;-78
2021/09/25 07:11:47;;;;;;;9.67;4.50;;;16.60;97.30;;;;;;5011745;28;20202;-77
2021/09/25 07:14:13;;;;;;;6.27;4.47;;;16.60;97.30;;;;;;5012396;28;20196;-77
2021/09/25 07:16:38;;;;;;;7.53;4.40;;;16.70;97.30;;;;;;5011477;28;20177;-77
2021/09/25 07:19:04;;;;;;;8.90;4.70;;;16.70;97.30;;;;;;5011624;28;20177;-78
2021/09/25 07:21:30;;;;;;;6.57;4.90;;;16.80;97.30;;;;;;5011733;28;20246;-78
2021/09/25 07:23:56;;;;;;;8.87;4.67;;;16.80;97.30;;;;;;5011659;28;20240;-78
2021/09/25 07:26:22;;;;;;;8.20;4.30;;;16.80;97.30;;;;;;5012036;28;21064;-77
2021/09/25 07:28:48;;;;;;;10.07;4.83;;;16.90;97.30;;;;;;5011222;28;20662;-77
2021/09/25 07:31:14;;;;;;;8.77;4.43;;;17.00;97.30;;;;;;5011902;28;21015;-78
2021/09/25 07:33:40;;;;;;;8.40;5.03;;;17.00;97.30;;;;;;5010956;28;20256;-77
2021/09/25 07:36:05;;;;;;;7.37;4.40;;;17.00;97.30;;;;;;4997499;28;20789;-78
2021/09/25 07:38:31;;;;;;;7.97;5.30;;;17.10;97.30;;;;;;5011587;28;20509;-77
2021/09/25 07:40:57;;;;;;;7.70;4.97;;;17.10;97.30;;;;;;5010562;28;20227;-78
2021/09/25 07:43:23;;;;;;;7.20;4.73;;;17.20;97.30;;;;;;5010129;28;20205;-76
2021/09/25 07:45:49;;;;;;;7.90;4.50;;;17.30;97.30;;;;;;5010699;28;20184;-81
2021/09/25 07:48:15;;;;;;;11.50;5.30;;;17.30;97.30;;;;;;5011973;28;20430;-79
2021/09/25 07:50:41;;;;;;;13.50;4.63;;;17.40;97.30;;;;;;5012289;28;20420;-77
2021/09/25 07:53:07;;;;;;;13.63;6.20;;;17.40;97.30;;;;;;5012145;28;20511;-79
2021/09/25 07:55:32;;;;;;;7.33;5.00;;;17.50;97.30;;;;;;5012403;28;20189;-78
2021/09/25 07:57:58;;;;;;;7.97;4.87;;;17.50;97.30;;;;;;5012606;28;20192;-76
2021/09/25 08:00:24;;;;;;;7.53;5.10;;;17.60;97.30;;;;;;5011379;28;20240;-78
2021/09/25 08:02:50;;;;;;;13.87;6.00;;;17.60;97.30;;;;;;5011788;28;20201;-77
2021/09/25 08:05:16;;;;;;;5.90;4.40;;;17.70;97.30;;;;;;5012040;28;20205;-78
2021/09/25 08:07:42;;;;;;;12.97;5.37;;;17.80;97.30;;;;;;5011915;28;20177;-78
2021/09/25 08:10:09;;;;;;;10.27;5.33;;;17.90;97.30;;;;;;5011510;28;20188;-79
2021/09/25 08:12:36;;;;;;;9.83;5.63;;;18.10;97.30;;;;;;5010964;28;20467;-77
2021/09/25 08:15:03;;;;;;;9.60;4.73;;;18.10;97.30;;;;;;5006094;28;20512;-78
2021/09/25 08:17:29;;;;;;;7.33;5.30;;;18.20;97.30;;;;;;4991373;28;20440;-76
2021/09/25 08:19:54;;;;;;;7.73;4.77;;;18.20;97.30;;;;;;4992397;28;20444;-79
2021/09/25 08:22:20;;;;;;;11.63;4.93;;;18.20;97.30;;;;;;4992595;28;20178;-78
2021/09/25 08:24:46;;;;;;;7.20;5.60;;;18.20;97.30;;;;;;4992680;28;20702;-81
2021/09/25 08:27:11;;;;;;;8.10;5.53;;;18.20;97.30;;;;;;5009340;28;20220;-78
2021/09/25 08:29:38;;;;;;;6.90;4.93;;;18.20;97.30;;;;;;5010814;28;20228;-77
2021/09/25 08:32:04;;;;;;;10.77;5.00;;;18.30;97.30;;;;;;5012145;28;20197;-76
2021/09/25 08:34:30;;;;;;;9.30;5.13;;;18.30;97.30;;;;;;5011079;28;20531;-77
2021/09/25 08:36:56;;;;;;;11.57;6.20;;;18.30;97.30;;;;;;5011079;28;20523;-82
2021/09/25 08:39:22;;;;;;;9.07;5.10;;;18.40;97.30;;;;;;5016565;28;20173;-81
2021/09/25 08:41:50;;;;;;;8.27;5.57;;;18.40;97.30;;;;;;5015896;28;20195;-80
2021/09/25 08:44:15;;;;;;;6.60;4.60;;;18.40;97.30;;;;;;5029670;28;20200;-76
2021/09/25 08:46:41;;;;;;;7.80;5.10;;;18.40;97.30;;;;;;5010532;28;20408;-77
2021/09/25 08:49:07;;;;;;;6.73;5.07;;;18.30;97.30;;;;;;5010793;28;20248;-77
2021/09/25 08:51:34;;;;;;;7.20;4.93;;;18.40;97.30;;;;;;5011430;28;20243;-78
2021/09/25 08:54:00;;;;;;;9.77;5.33;;;18.50;97.30;;;;;;5012327;28;20440;-83
2021/09/25 08:56:27;;;;;;;8.20;5.60;;;18.60;97.30;;;;;;5015907;28;20431;-78
2021/09/25 08:58:54;;;;;;;10.57;5.73;;;18.60;97.30;;;;;;5014950;28;20180;-78
2021/09/25 09:01:21;;;;;;;6.87;5.20;;;18.70;97.30;;;;;;5014720;28;20787;-78
2021/09/25 09:03:51;;;;;;;9.30;5.47;;;18.70;97.30;;;;;;5016138;28;20443;-79
2021/09/25 09:06:51;;;;;;;21.43;6.17;;;18.70;97.30;;;;;;5017592;28;20999;-82
2021/09/25 09:09:17;;;;;;;7.87;5.17;;;18.80;97.30;;;;;;5004427;28;20806;-80
2021/09/25 09:11:46;;;;;;;10.53;6.87;;;19.00;97.30;;;;;;5021378;28;20434;-81
2021/09/25 09:14:15;;;;;;;8.80;5.40;;;19.30;97.30;;;;;;5016993;28;20217;-80
2021/09/25 09:16:41;;;;;;;13.23;6.70;;;19.60;97.30;;;;;;5018057;28;20412;-80
2021/09/25 09:19:07;;;;;;;9.20;5.67;;;19.80;97.30;;;;;;5020489;28;20419;-79
2021/09/25 09:21:33;;;;;;;8.50;5.97;;;19.90;97.30;;;;;;5016587;28;20900;-79
2021/09/25 09:24:01;;;;;;;9.53;5.50;;;20.00;97.30;;;;;;5017152;28;20432;-82
2021/09/25 09:26:36;;;;;;;8.73;6.23;;;20.10;97.30;;;;;;5014995;28;20170;-79
2021/09/25 09:29:04;;;;;;;10.27;5.50;;;20.10;97.30;;;;;;5013493;28;20416;-79
2021/09/25 09:31:31;;;;;;;10.03;5.70;;;20.20;97.30;;;;;;5014043;28;20416;-78
2021/09/25 09:33:59;;;;;;;12.67;5.80;;;20.20;97.30;;;;;;5014253;28;20502;-78
2021/09/25 09:36:36;;;;;;;10.93;5.90;;;20.20;97.30;;;;;;5013974;28;20868;-78
2021/09/25 09:39:20;;;;;;;13.10;5.73;;;20.20;97.30;;;;;;5014058;28;20420;-78
2021/09/25 09:41:51;;;;;;;7.47;5.23;;;20.20;97.30;;;;;;5017306;28;20412;-80
2021/09/25 09:44:23;;;;;;;8.17;5.13;;;20.30;97.30;;;;;;5022113;28;20444;-83
2021/09/25 09:46:51;;;;;;;7.93;4.30;;;20.40;97.30;;;;;;5012853;28;20470;-79
2021/09/25 09:49:24;;;;;;;7.30;4.90;;;20.50;97.30;;;;;;5031362;28;21174;-79
2021/09/25 09:52:13;;;;;;;11.23;5.50;;;20.50;97.30;;;;;;5017546;28;20404;-82
2021/09/25 09:54:42;;;;;;;5.90;4.30;;;20.40;97.30;;;;;;5017209;28;20479;-81
2021/09/25 09:57:19;;;;;;;8.67;4.90;;;20.30;97.30;;;;;;5016265;28;20412;-79
2021/09/25 09:59:47;;;;;;;8.57;4.20;;;20.30;97.30;;;;;;5018789;28;20412;-81
2021/09/25 10:02:12;;;;;;;8.60;4.80;;;20.30;97.30;;;;;;5015494;28;20415;-78
2021/09/25 10:04:39;;;;;;;10.03;4.90;;;20.40;97.30;;;;;;5015023;28;20436;-83
2021/09/25 10:07:06;;;;;;;7.80;5.30;;;20.40;97.30;;;;;;5015551;28;20213;-83
2021/09/25 10:09:34;;;;;;;8.20;5.33;;;20.60;97.30;;;;;;5017433;28;20412;-83
2021/09/25 10:12:02;;;;;;;9.47;5.20;;;20.70;97.30;;;;;;5017350;28;20468;-83
2021/09/25 10:14:42;;;;;;;6.50;4.67;;;20.70;97.30;;;;;;5016819;28;20557;-82
2021/09/25 10:17:10;;;;;;;10.30;4.63;;;20.70;97.00;;;;;;5019640;28;20443;-82
2021/09/25 10:19:38;;;;;;;13.27;5.07;;;20.70;97.00;;;;;;5017313;28;20506;-83
2021/09/25 10:22:19;;;;;;;7.30;4.63;;;20.70;96.80;;;;;;5017413;28;20812;-83
2021/09/25 10:24:46;;;;;;;7.93;4.57;;;20.70;97.30;;;;;;5018739;28;20430;-78
2021/09/25 10:27:13;;;;;;;8.47;5.80;;;20.80;97.30;;;;;;5028326;28;20478;-78
2021/09/25 10:29:45;;;;;;;7.90;4.73;;;20.80;97.30;;;;;;5014043;28;20500;-78
2021/09/25 10:32:18;;;;;;;16.87;5.83;;;20.90;97.30;;;;;;5012244;28;20488;-78
2021/09/25 10:35:09;;;;;;;9.57;5.77;;;20.90;97.00;;;;;;5011719;28;20530;-78
2021/09/25 10:37:38;;;;;;;10.47;4.70;;;20.90;96.60;;;;;;5010994;28;20416;-78
2021/09/25 10:40:10;;;;;;;7.03;5.17;;;20.90;97.10;;;;;;5016472;28;20460;-78
2021/09/25 10:42:45;;;;;;;10.57;5.97;;;20.90;97.20;;;;;;4992115;28;20524;-79
2021/09/25 10:45:32;;;;;;;9.30;5.00;;;21.00;97.30;;;;;;5007734;28;20427;-78
2021/09/25 10:48:14;;;;;;;7.40;5.10;;;21.00;97.30;;;;;;5010276;28;20417;-83
2021/09/25 10:50:50;;;;;;;10.10;5.20;;;21.00;97.20;;;;;;4997042;28;20452;-81
2021/09/25 10:53:34;;;;;;;9.23;4.37;;;21.10;97.30;;;;;;4996366;28;20464;-80
2021/09/25 10:56:03;;;;;;;10.47;5.40;;;21.10;97.30;;;;;;4995755;28;20421;-80
2021/09/25 10:58:39;;;;;;;7.90;5.13;;;21.10;97.30;;;;;;5003438;28;20416;-79
2021/09/25 11:01:20;;;;;;;7.70;5.50;;;21.20;97.00;;;;;;5013169;28;20869;-79
2021/09/25 11:03:58;;;;;;;10.20;4.70;;;21.20;97.10;;;;;;5013296;28;20543;-79
2021/09/25 11:06:45;;;;;;;7.23;4.80;;;21.30;97.30;;;;;;5014190;28;20427;-78
2021/09/25 11:09:32;;;;;;;7.47;5.20;;;21.40;97.10;;;;;;5015236;28;20432;-77
2021/09/25 11:12:10;;;;;;;8.07;4.80;;;21.40;97.30;;;;;;5010449;28;20803;-78
2021/09/25 11:14:43;;;;;;;7.20;5.10;;;21.50;96.90;;;;;;5014193;28;20454;-79
2021/09/25 11:17:12;;;;;;;11.10;5.47;;;21.50;96.60;;;;;;5014970;28;20416;-80
2021/09/25 11:19:41;;;;;;;9.67;5.30;;;21.50;96.60;;;;;;5017701;28;20777;-80
2021/09/25 11:22:14;;;;;;;8.30;5.17;;;21.50;96.10;;;;;;5014529;28;20425;-82
2021/09/25 11:24:50;;;;;;;6.97;4.60;;;21.60;95.70;;;;;;5033733;28;20957;-82
2021/09/25 11:27:24;;;;;;;8.87;4.20;;;21.60;96.00;;;;;;5015802;28;20848;-77
2021/09/25 11:30:13;;;;;;;8.37;4.73;;;21.60;96.70;;;;;;5028816;28;20479;-78
2021/09/25 11:32:43;;;;;;;6.00;3.77;;;21.70;96.90;;;;;;5011252;28;20509;-76
2021/09/25 11:35:13;;;;;;;8.07;4.80;;;21.70;96.60;;;;;;5011792;28;20401;-77
2021/09/25 11:37:45;;;;;;;6.00;3.57;;;21.80;95.50;;;;;;5014545;28;20841;-81
2021/09/25 11:40:11;;;;;;;5.10;3.80;;;21.80;95.10;;;;;;5012351;28;20457;-81
2021/09/25 11:42:37;;;;;;;4.97;3.40;;;21.80;94.60;;;;;;4995629;28;20432;-81
2021/09/25 11:45:02;;;;;;;5.00;3.90;;;21.80;95.50;;;;;;5003038;28;20436;-78
2021/09/25 11:47:37;;;;;;;6.83;3.80;;;21.70;94.30;;;;;;5028030;28;20203;-79
2021/09/25 11:50:23;;;;;;;6.87;3.50;;;21.80;94.60;;;;;;5011504;28;20183;-80
2021/09/25 11:52:53;;;;;;;4.83;3.53;;;21.80;94.40;;;;;;5012754;28;20840;-81
2021/09/25 11:55:19;;;;;;;5.63;3.00;;;21.80;94.30;;;;;;5011497;28;20424;-76
2021/09/25 11:57:51;;;;;;;3.40;2.90;;;21.90;94.20;;;;;;5011726;28;20420;-79
2021/09/25 12:00:23;;;;;;;4.17;2.90;;;21.90;93.70;;;;;;5012756;28;20522;-79
2021/09/25 12:02:49;;;;;;;3.70;2.83;;;21.80;93.30;;;;;;5015432;28;20442;-82
2021/09/25 12:05:30;;;;;;;3.70;2.93;;;21.80;93.20;;;;;;5015748;28;20424;-81
2021/09/25 12:07:58;;;;;;;4.80;3.40;;;21.80;93.60;;;;;;5031267;28;20428;-82
2021/09/25 12:10:34;;;;;;;3.80;3.00;;;21.80;93.50;;;;;;5012992;28;20436;-82
2021/09/25 12:13:09;;;;;;;5.33;3.40;;;21.80;93.70;;;;;;4996290;28;20472;-83
2021/09/25 12:15:37;;;;;;;7.47;3.60;;;21.80;93.50;;;;;;5014610;28;20418;-81
2021/09/25 12:18:15;;;;;;;4.60;2.60;;;21.80;93.10;;;;;;5015701;28;20424;-77
2021/09/25 12:20:46;;;;;;;6.23;3.20;;;21.90;93.60;;;;;;5011843;28;20401;-78
2021/09/25 12:23:16;;;;;;;3.60;2.83;;;21.90;93.10;;;;;;5010467;28;20444;-78
2021/09/25 12:25:42;;;;;;;3.90;2.90;;;22.00;93.60;;;;;;5011038;28;20455;-78
2021/09/25 12:28:23;;;;;;;6.83;4.37;;;22.00;93.20;;;;;;5010348;28;21211;-77
2021/09/25 12:30:49;;;;;;;4.40;3.10;;;22.10;93.50;;;;;;5009385;28;20433;-78
2021/09/25 12:33:17;;;;;;;5.87;3.73;;;22.30;93.20;;;;;;5026966;28;20494;-78
2021/09/25 12:35:57;;;;;;;6.10;2.97;;;22.40;94.20;;;;;;5024974;28;20166;-78
2021/09/25 12:38:28;;;;;;;4.77;3.13;;;22.50;92.80;;;;;;4992121;28;20548;-79
2021/09/25 12:41:02;;;;;;;5.03;2.70;;;22.70;93.20;;;;;;4993049;28;20406;-77
2021/09/25 12:43:32;;;;;;;3.93;3.00;;;22.80;92.40;;;;;;4996515;28;20498;-79
2021/09/25 12:46:13;;;;;;;3.90;2.60;;;22.90;91.90;;;;;;4996334;28;20526;-79
2021/09/25 12:49:01;;;;;;;3.10;2.80;;;23.10;92.00;;;;;;4995355;28;20412;-78